Check out our new PWSWeather beta!
PWSweather.com
Personal Weather Stations
Station Observations

MakarauRodneyNZ

Lat: -36.52421, Lon: 174.47572

Elevation: 606

Station Type: Davis VP2

http://kaiparaweather.dynu.net/index.php

High Low Average
Temperature 78.3°F25.7°C 56.7°F13.7°C 65.9°F18.8°C
Dew Point 58.6°F14.8°C 51.3°F10.7°C 54.5°F12.5°C
Winds 12.7 mph 20.4 kmh Calm Calm 2.0 mph SE3.2 kmh SE
Wind Gusts 19.6 mph31.5 kmh -- 4.0 mph6.4 kmh
Humidity 88% 43% 69%
Pressure 30.09 in1019.0 mb 29.98 in1015.2 mb -
Precipitation 0.00 in0.0 mm - -
Hour Temp Dew Point Humidity Winds Wind Gusts Pressure Precip Precip Rate Daily Precip Total
12:00 AM 60.5°F15.8°C 55.0°F12.8°C 82% Calm Calm -- 30.06 in1017.9 mb - 0.00 in0.0 mm 0.00 in0.0 mm
12:10 AM 60.4°F15.8°C 54.9°F12.7°C 82% Calm Calm -- 30.06 in1017.9 mb - 0.00 in0.0 mm 0.00 in0.0 mm
12:20 AM 60.3°F15.7°C 55.1°F12.8°C 83% Calm Calm -- 30.06 in1017.9 mb - 0.00 in0.0 mm 0.00 in0.0 mm
12:30 AM 60.3°F15.7°C 55.1°F12.8°C 83% Calm Calm -- 30.06 in1017.9 mb - 0.00 in0.0 mm 0.00 in0.0 mm
12:40 AM 60.2°F15.7°C 55.0°F12.8°C 83% Calm Calm -- 30.05 in1017.6 mb - 0.00 in0.0 mm 0.00 in0.0 mm
12:50 AM 60.1°F15.6°C 55.2°F12.9°C 84% Calm Calm -- 30.06 in1017.9 mb - 0.00 in0.0 mm 0.00 in0.0 mm
01:00 AM 60.0°F15.6°C 55.2°F12.9°C 84% Calm Calm -- 30.06 in1017.9 mb - 0.00 in0.0 mm 0.00 in0.0 mm
01:10 AM 60.2°F15.7°C 55.4°F13.0°C 84% Calm Calm -- 30.06 in1017.9 mb - 0.00 in0.0 mm 0.00 in0.0 mm
01:20 AM 60.3°F15.7°C 55.5°F13.1°C 84% Calm Calm -- 30.06 in1017.9 mb - 0.00 in0.0 mm 0.00 in0.0 mm
01:30 AM 60.3°F15.7°C 55.4°F13.0°C 84% Calm Calm -- 30.05 in1017.6 mb - 0.00 in0.0 mm 0.00 in0.0 mm
01:40 AM 60.0°F15.6°C 55.2°F12.9°C 84% Calm Calm -- 30.05 in1017.6 mb - 0.00 in0.0 mm 0.00 in0.0 mm
01:50 AM 59.7°F15.4°C 54.9°F12.7°C 84% Calm Calm -- 30.05 in1017.6 mb - 0.00 in0.0 mm 0.00 in0.0 mm
02:00 AM 59.4°F15.2°C 54.9°F12.7°C 85% Calm Calm -- 30.05 in1017.6 mb - 0.00 in0.0 mm 0.00 in0.0 mm
02:10 AM 59.2°F15.1°C 54.7°F12.6°C 85% Calm Calm -- 30.05 in1017.6 mb - 0.00 in0.0 mm 0.00 in0.0 mm
02:20 AM 59.0°F15.0°C 54.5°F12.5°C 85% Calm Calm -- 30.05 in1017.6 mb - 0.00 in0.0 mm 0.00 in0.0 mm
02:30 AM 58.6°F14.8°C 54.4°F12.4°C 86% Calm Calm -- 30.05 in1017.6 mb - 0.00 in0.0 mm 0.00 in0.0 mm
02:40 AM 58.4°F14.7°C 54.2°F12.3°C 86% Calm Calm -- 30.05 in1017.6 mb - 0.00 in0.0 mm 0.00 in0.0 mm
02:50 AM 58.3°F14.6°C 54.4°F12.4°C 87% Calm Calm -- 30.05 in1017.6 mb - 0.00 in0.0 mm 0.00 in0.0 mm
03:00 AM 58.5°F14.7°C 54.3°F12.4°C 86% Calm Calm -- 30.05 in1017.6 mb - 0.00 in0.0 mm 0.00 in0.0 mm
03:10 AM 58.4°F14.7°C 54.3°F12.4°C 86% Calm Calm -- 30.04 in1017.3 mb - 0.00 in0.0 mm 0.00 in0.0 mm
03:20 AM 58.3°F14.6°C 54.1°F12.3°C 86% Calm Calm -- 30.04 in1017.3 mb - 0.00 in0.0 mm 0.00 in0.0 mm
03:30 AM 58.1°F14.5°C 53.9°F12.2°C 86% Calm Calm -- 30.04 in1017.3 mb - 0.00 in0.0 mm 0.00 in0.0 mm
03:40 AM 58.0°F14.4°C 54.2°F12.3°C 87% Calm Calm -- 30.04 in1017.3 mb - 0.00 in0.0 mm 0.00 in0.0 mm
03:50 AM 57.9°F14.4°C 54.1°F12.3°C 87% Calm Calm -- 30.04 in1017.3 mb - 0.00 in0.0 mm 0.00 in0.0 mm
04:00 AM 57.7°F14.3°C 53.9°F12.2°C 87% Calm Calm -- 30.04 in1017.3 mb - 0.00 in0.0 mm 0.00 in0.0 mm
04:10 AM 57.6°F14.2°C 53.8°F12.1°C 87% Calm Calm -- 30.04 in1017.3 mb - 0.00 in0.0 mm 0.00 in0.0 mm
04:20 AM 57.9°F14.4°C 53.8°F12.1°C 86% Calm Calm -- 30.05 in1017.6 mb - 0.00 in0.0 mm 0.00 in0.0 mm
04:30 AM 58.1°F14.5°C 53.9°F12.2°C 86% Calm Calm -- 30.04 in1017.3 mb - 0.00 in0.0 mm 0.00 in0.0 mm
04:40 AM 57.8°F14.3°C 53.6°F12.0°C 86% Calm Calm -- 30.04 in1017.3 mb - 0.00 in0.0 mm 0.00 in0.0 mm
04:50 AM 57.5°F14.2°C 53.3°F11.8°C 86% Calm Calm -- 30.05 in1017.6 mb - 0.00 in0.0 mm 0.00 in0.0 mm
05:00 AM 57.3°F14.1°C 53.4°F11.9°C 87% Calm Calm -- 30.05 in1017.6 mb - 0.00 in0.0 mm 0.00 in0.0 mm
05:10 AM 57.1°F13.9°C 53.3°F11.8°C 87% Calm Calm -- 30.05 in1017.6 mb - 0.00 in0.0 mm 0.00 in0.0 mm
05:20 AM 57.0°F13.9°C 53.2°F11.8°C 87% Calm Calm -- 30.05 in1017.6 mb - 0.00 in0.0 mm 0.00 in0.0 mm
05:30 AM 56.8°F13.8°C 53.0°F11.7°C 87% Calm Calm -- 30.05 in1017.6 mb - 0.00 in0.0 mm 0.00 in0.0 mm
05:40 AM 56.7°F13.7°C 53.2°F11.8°C 88% Calm Calm -- 30.06 in1017.9 mb - 0.00 in0.0 mm 0.00 in0.0 mm
05:50 AM 56.7°F13.7°C 53.2°F11.8°C 88% Calm Calm -- 30.06 in1017.9 mb - 0.00 in0.0 mm 0.00 in0.0 mm
06:00 AM 56.9°F13.8°C 53.3°F11.8°C 88% Calm Calm -- 30.07 in1018.3 mb - 0.00 in0.0 mm 0.00 in0.0 mm
06:10 AM 57.1°F13.9°C 53.6°F12.0°C 88% Calm Calm -- 30.07 in1018.3 mb - 0.00 in0.0 mm 0.00 in0.0 mm
06:20 AM 57.4°F14.1°C 53.9°F12.2°C 88% Calm Calm -- 30.07 in1018.3 mb - 0.00 in0.0 mm 0.00 in0.0 mm
06:30 AM 57.7°F14.3°C 53.9°F12.2°C 87% Calm Calm -- 30.07 in1018.3 mb - 0.00 in0.0 mm 0.00 in0.0 mm
06:40 AM 58.2°F14.6°C 54.3°F12.4°C 87% Calm Calm -- 30.07 in1018.3 mb - 0.00 in0.0 mm 0.00 in0.0 mm
06:50 AM 59.3°F15.2°C 55.1°F12.8°C 86% Calm Calm -- 30.07 in1018.3 mb - 0.00 in0.0 mm 0.00 in0.0 mm
07:00 AM 61.1°F16.2°C 55.6°F13.1°C 82% Calm Calm -- 30.08 in1018.6 mb - 0.00 in0.0 mm 0.00 in0.0 mm
07:10 AM 63.2°F17.3°C 56.5°F13.6°C 79% Calm Calm -- 30.08 in1018.6 mb - 0.00 in0.0 mm 0.00 in0.0 mm
07:20 AM 64.7°F18.2°C 56.5°F13.6°C 75% Calm Calm -- 30.08 in1018.6 mb - 0.00 in0.0 mm 0.00 in0.0 mm
07:30 AM 65.8°F18.8°C 56.9°F13.8°C 73% Calm Calm -- 30.08 in1018.6 mb - 0.00 in0.0 mm 0.00 in0.0 mm
07:40 AM 66.8°F19.3°C 57.5°F14.2°C 72% Calm Calm -- 30.08 in1018.6 mb - 0.00 in0.0 mm 0.00 in0.0 mm
07:50 AM 66.9°F19.4°C 56.8°F13.8°C 70% Calm Calm 1.2 mph1.9 kmh 30.08 in1018.6 mb - 0.00 in0.0 mm 0.00 in0.0 mm
08:00 AM 67.7°F19.8°C 56.8°F13.8°C 68% Calm Calm 1.2 mph1.9 kmh 30.08 in1018.6 mb - 0.00 in0.0 mm 0.00 in0.0 mm
08:10 AM 67.8°F19.9°C 56.0°F13.3°C 66% Calm Calm 1.2 mph1.9 kmh 30.09 in1019.0 mb - 0.00 in0.0 mm 0.00 in0.0 mm
08:20 AM 68.3°F20.2°C 55.7°F13.2°C 64% Calm Calm 1.2 mph1.9 kmh 30.09 in1019.0 mb - 0.00 in0.0 mm 0.00 in0.0 mm
08:30 AM 69.3°F20.7°C 55.7°F13.2°C 62% Calm Calm 1.2 mph1.9 kmh 30.08 in1018.6 mb - 0.00 in0.0 mm 0.00 in0.0 mm
08:40 AM 69.6°F20.9°C 55.1°F12.8°C 60% 1.2 mph NNE1.9 kmh NNE 4.6 mph7.4 kmh 30.08 in1018.6 mb - 0.00 in0.0 mm 0.00 in0.0 mm
08:50 AM 70.6°F21.4°C 54.1°F12.3°C 56% Calm Calm 1.2 mph1.9 kmh 30.08 in1018.6 mb - 0.00 in0.0 mm 0.00 in0.0 mm
09:00 AM 69.8°F21.0°C 53.9°F12.2°C 57% Calm Calm 2.3 mph3.7 kmh 30.08 in1018.6 mb - 0.00 in0.0 mm 0.00 in0.0 mm
09:10 AM 70.3°F21.3°C 53.4°F11.9°C 55% Calm Calm 3.5 mph5.6 kmh 30.07 in1018.3 mb - 0.00 in0.0 mm 0.00 in0.0 mm
09:20 AM 71.1°F21.7°C 54.6°F12.6°C 56% Calm Calm -- 30.07 in1018.3 mb - 0.00 in0.0 mm 0.00 in0.0 mm
09:30 AM 72.5°F22.5°C 53.3°F11.8°C 51% Calm Calm 3.5 mph5.6 kmh 30.07 in1018.3 mb - 0.00 in0.0 mm 0.00 in0.0 mm
09:40 AM 73.6°F23.1°C 54.4°F12.4°C 51% Calm Calm -- 30.07 in1018.3 mb - 0.00 in0.0 mm 0.00 in0.0 mm
09:50 AM 73.1°F22.8°C 53.9°F12.2°C 51% Calm Calm 1.2 mph1.9 kmh 30.07 in1018.3 mb - 0.00 in0.0 mm 0.00 in0.0 mm
10:00 AM 74.7°F23.7°C 54.8°F12.7°C 50% Calm Calm 2.3 mph3.7 kmh 30.07 in1018.3 mb - 0.00 in0.0 mm 0.00 in0.0 mm
10:10 AM 74.7°F23.7°C 53.7°F12.1°C 48% 2.3 mph NE3.7 kmh NE 11.5 mph18.5 kmh 30.06 in1017.9 mb - 0.00 in0.0 mm 0.00 in0.0 mm
10:20 AM 75.1°F23.9°C 54.0°F12.2°C 48% Calm Calm 1.2 mph1.9 kmh 30.06 in1017.9 mb - 0.00 in0.0 mm 0.00 in0.0 mm
10:30 AM 73.8°F23.2°C 52.3°F11.3°C 47% 2.3 mph E3.7 kmh E 3.5 mph5.6 kmh 30.06 in1017.9 mb - 0.00 in0.0 mm 0.00 in0.0 mm
10:40 AM 72.2°F22.3°C 51.4°F10.8°C 48% 1.2 mph E1.9 kmh E -- 30.05 in1017.6 mb - 0.00 in0.0 mm 0.00 in0.0 mm
10:50 AM 72.9°F22.7°C 52.7°F11.5°C 49% Calm Calm -- 30.05 in1017.6 mb - 0.00 in0.0 mm 0.00 in0.0 mm
11:00 AM 73.9°F23.3°C 54.1°F12.3°C 50% Calm Calm 1.2 mph1.9 kmh 30.05 in1017.6 mb - 0.00 in0.0 mm 0.00 in0.0 mm
11:10 AM 73.6°F23.1°C 51.6°F10.9°C 46% 1.2 mph E1.9 kmh E 6.9 mph11.1 kmh 30.05 in1017.6 mb - 0.00 in0.0 mm 0.00 in0.0 mm
11:20 AM 72.7°F22.6°C 52.5°F11.4°C 49% 2.3 mph E3.7 kmh E 3.5 mph5.6 kmh 30.05 in1017.6 mb - 0.00 in0.0 mm 0.00 in0.0 mm
11:30 AM 71.7°F22.1°C 51.5°F10.8°C 49% 1.2 mph ESE1.9 kmh ESE 5.8 mph9.3 kmh 30.04 in1017.3 mb - 0.00 in0.0 mm 0.00 in0.0 mm
11:40 AM 71.5°F21.9°C 51.3°F10.7°C 49% Calm Calm 2.3 mph3.7 kmh 30.04 in1017.3 mb - 0.00 in0.0 mm 0.00 in0.0 mm
11:50 AM 72.9°F22.7°C 54.3°F12.4°C 52% 2.3 mph NE3.7 kmh NE 6.9 mph11.1 kmh 30.04 in1017.3 mb - 0.00 in0.0 mm 0.00 in0.0 mm
12:00 PM 75.6°F24.2°C 55.1°F12.8°C 49% 2.3 mph NE3.7 kmh NE 3.5 mph5.6 kmh 30.03 in1016.9 mb - 0.00 in0.0 mm 0.00 in0.0 mm
12:10 PM 75.1°F23.9°C 52.9°F11.6°C 46% 4.6 mph SSE7.4 kmh SSE 10.4 mph16.7 kmh 30.03 in1016.9 mb - 0.00 in0.0 mm 0.00 in0.0 mm
12:20 PM 74.3°F23.5°C 53.9°F12.2°C 49% 1.2 mph NE1.9 kmh NE 3.5 mph5.6 kmh 30.03 in1016.9 mb - 0.00 in0.0 mm 0.00 in0.0 mm
12:30 PM 75.8°F24.3°C 52.3°F11.3°C 44% 1.2 mph S1.9 kmh S 5.8 mph9.3 kmh 30.03 in1016.9 mb - 0.00 in0.0 mm 0.00 in0.0 mm
12:40 PM 73.7°F23.2°C 52.8°F11.6°C 48% 2.3 mph NE3.7 kmh NE 6.9 mph11.1 kmh 30.02 in1016.6 mb - 0.00 in0.0 mm 0.00 in0.0 mm
12:50 PM 74.9°F23.8°C 53.3°F11.8°C 47% Calm Calm 1.2 mph1.9 kmh 30.02 in1016.6 mb - 0.00 in0.0 mm 0.00 in0.0 mm
01:00 PM 74.2°F23.4°C 51.5°F10.8°C 45% 3.5 mph ESE5.6 kmh ESE 4.6 mph7.4 kmh 30.01 in1016.3 mb - 0.00 in0.0 mm 0.00 in0.0 mm
01:10 PM 74.5°F23.6°C 52.3°F11.3°C 46% Calm Calm 1.2 mph1.9 kmh 30.01 in1016.3 mb - 0.00 in0.0 mm 0.00 in0.0 mm
01:20 PM 76.1°F24.5°C 54.4°F12.4°C 47% Calm Calm 1.2 mph1.9 kmh 30.01 in1016.3 mb - 0.00 in0.0 mm 0.00 in0.0 mm
01:30 PM 77.5°F25.3°C 55.0°F12.8°C 46% Calm Calm -- 30.00 in1015.9 mb - 0.00 in0.0 mm 0.00 in0.0 mm
01:40 PM 78.3°F25.7°C 54.0°F12.2°C 43% 2.3 mph SE3.7 kmh SE 11.5 mph18.5 kmh 30.00 in1015.9 mb - 0.00 in0.0 mm 0.00 in0.0 mm
01:50 PM 74.5°F23.6°C 52.9°F11.6°C 47% 1.2 mph S1.9 kmh S 5.8 mph9.3 kmh 30.00 in1015.9 mb - 0.00 in0.0 mm 0.00 in0.0 mm
02:00 PM 73.3°F22.9°C 53.6°F12.0°C 50% Calm Calm -- 30.00 in1015.9 mb - 0.00 in0.0 mm 0.00 in0.0 mm
02:10 PM 73.6°F23.1°C 54.4°F12.4°C 51% Calm Calm 2.3 mph3.7 kmh 30.00 in1015.9 mb - 0.00 in0.0 mm 0.00 in0.0 mm
02:20 PM 73.8°F23.2°C 55.1°F12.8°C 52% 4.6 mph SW7.4 kmh SW 6.9 mph11.1 kmh 30.00 in1015.9 mb - 0.00 in0.0 mm 0.00 in0.0 mm
02:30 PM 74.1°F23.4°C 56.4°F13.6°C 54% 5.8 mph WSW9.3 kmh WSW 11.5 mph18.5 kmh 30.00 in1015.9 mb - 0.00 in0.0 mm 0.00 in0.0 mm
02:40 PM 75.7°F24.3°C 56.3°F13.5°C 51% 2.3 mph W3.7 kmh W 8.1 mph13.0 kmh 30.00 in1015.9 mb - 0.00 in0.0 mm 0.00 in0.0 mm
02:50 PM 75.8°F24.3°C 56.4°F13.6°C 51% 6.9 mph W11.1 kmh W 16.1 mph25.9 kmh 29.99 in1015.6 mb - 0.00 in0.0 mm 0.00 in0.0 mm
03:00 PM 75.8°F24.3°C 55.2°F12.9°C 49% 12.7 mph NW20.4 kmh NW 19.6 mph31.5 kmh 29.99 in1015.6 mb - 0.00 in0.0 mm 0.00 in0.0 mm
03:10 PM 75.3°F24.1°C 57.0°F13.9°C 53% 5.8 mph WSW9.3 kmh WSW 13.8 mph22.2 kmh 29.99 in1015.6 mb - 0.00 in0.0 mm 0.00 in0.0 mm
03:20 PM 74.0°F23.3°C 56.3°F13.5°C 54% 4.6 mph WSW7.4 kmh WSW 11.5 mph18.5 kmh 29.99 in1015.6 mb - 0.00 in0.0 mm 0.00 in0.0 mm
03:30 PM 74.7°F23.7°C 57.0°F13.9°C 54% 10.4 mph SW16.7 kmh SW 17.3 mph27.8 kmh 29.99 in1015.6 mb - 0.00 in0.0 mm 0.00 in0.0 mm
03:40 PM 74.6°F23.7°C 57.4°F14.1°C 55% 6.9 mph WSW11.1 kmh WSW 15.0 mph24.1 kmh 29.99 in1015.6 mb - 0.00 in0.0 mm 0.00 in0.0 mm
03:50 PM 74.9°F23.8°C 58.6°F14.8°C 57% 9.2 mph SW14.8 kmh SW 19.6 mph31.5 kmh 29.99 in1015.6 mb - 0.00 in0.0 mm 0.00 in0.0 mm
04:00 PM 74.0°F23.3°C 57.3°F14.1°C 56% 8.1 mph WNW13.0 kmh WNW 18.4 mph29.6 kmh 29.99 in1015.6 mb - 0.00 in0.0 mm 0.00 in0.0 mm
04:10 PM 73.5°F23.1°C 56.9°F13.8°C 56% 9.2 mph SW14.8 kmh SW 11.5 mph18.5 kmh 29.99 in1015.6 mb - 0.00 in0.0 mm 0.00 in0.0 mm
04:20 PM 73.1°F22.8°C 57.0°F13.9°C 57% 9.2 mph SSW14.8 kmh SSW 16.1 mph25.9 kmh 29.99 in1015.6 mb - 0.00 in0.0 mm 0.00 in0.0 mm
04:30 PM 72.3°F22.4°C 57.1°F13.9°C 59% 6.9 mph SW11.1 kmh SW 13.8 mph22.2 kmh 29.99 in1015.6 mb - 0.00 in0.0 mm 0.00 in0.0 mm
04:40 PM 72.5°F22.5°C 56.9°F13.8°C 58% 6.9 mph SW11.1 kmh SW 9.2 mph14.8 kmh 29.98 in1015.2 mb - 0.00 in0.0 mm 0.00 in0.0 mm
04:50 PM 72.0°F22.2°C 56.4°F13.6°C 58% 9.2 mph SW14.8 kmh SW 11.5 mph18.5 kmh 29.98 in1015.2 mb - 0.00 in0.0 mm 0.00 in0.0 mm
05:00 PM 71.6°F22.0°C 55.6°F13.1°C 57% 12.7 mph SSW20.4 kmh SSW 15.0 mph24.1 kmh 29.98 in1015.2 mb - 0.00 in0.0 mm 0.00 in0.0 mm
05:10 PM 71.2°F21.8°C 55.1°F12.8°C 57% 12.7 mph SSW20.4 kmh SSW 13.8 mph22.2 kmh 29.98 in1015.2 mb - 0.00 in0.0 mm 0.00 in0.0 mm
05:20 PM 70.9°F21.6°C 54.9°F12.7°C 57% 9.2 mph SW14.8 kmh SW 10.4 mph16.7 kmh 29.98 in1015.2 mb - 0.00 in0.0 mm 0.00 in0.0 mm
05:30 PM 70.2°F21.2°C 54.7°F12.6°C 58% 6.9 mph SW11.1 kmh SW 10.4 mph16.7 kmh 29.98 in1015.2 mb - 0.00 in0.0 mm 0.00 in0.0 mm
05:40 PM 70.8°F21.6°C 54.3°F12.4°C 56% 6.9 mph SW11.1 kmh SW 9.2 mph14.8 kmh 29.98 in1015.2 mb - 0.00 in0.0 mm 0.00 in0.0 mm
05:50 PM 69.3°F20.7°C 54.3°F12.4°C 59% 8.1 mph SSW13.0 kmh SSW 13.8 mph22.2 kmh 29.99 in1015.6 mb - 0.00 in0.0 mm 0.00 in0.0 mm
06:00 PM 67.9°F19.9°C 54.4°F12.4°C 62% 4.6 mph SW7.4 kmh SW 11.5 mph18.5 kmh 29.99 in1015.6 mb - 0.00 in0.0 mm 0.00 in0.0 mm
06:10 PM 68.1°F20.1°C 55.5°F13.1°C 64% 2.3 mph SW3.7 kmh SW 3.5 mph5.6 kmh 29.99 in1015.6 mb - 0.00 in0.0 mm 0.00 in0.0 mm
06:20 PM 67.7°F19.8°C 55.6°F13.1°C 65% 8.1 mph SSW13.0 kmh SSW 11.5 mph18.5 kmh 29.99 in1015.6 mb - 0.00 in0.0 mm 0.00 in0.0 mm
06:30 PM 67.0°F19.4°C 55.3°F12.9°C 66% 9.2 mph SW14.8 kmh SW 10.4 mph16.7 kmh 30.00 in1015.9 mb - 0.00 in0.0 mm 0.00 in0.0 mm
06:40 PM 67.1°F19.5°C 55.4°F13.0°C 66% 9.2 mph SSW14.8 kmh SSW 12.7 mph20.4 kmh 30.00 in1015.9 mb - 0.00 in0.0 mm 0.00 in0.0 mm
06:50 PM 66.8°F19.3°C 55.5°F13.1°C 67% 9.2 mph SSW14.8 kmh SSW 11.5 mph18.5 kmh 30.00 in1015.9 mb - 0.00 in0.0 mm 0.00 in0.0 mm
07:00 PM 66.2°F19.0°C 54.1°F12.3°C 65% 8.1 mph SW13.0 kmh SW 11.5 mph18.5 kmh 30.00 in1015.9 mb - 0.00 in0.0 mm 0.00 in0.0 mm
07:10 PM 65.9°F18.8°C 54.2°F12.3°C 66% 5.8 mph S9.3 kmh S 9.2 mph14.8 kmh 30.00 in1015.9 mb - 0.00 in0.0 mm 0.00 in0.0 mm
07:20 PM 65.5°F18.6°C 54.6°F12.6°C 68% 6.9 mph S11.1 kmh S 10.4 mph16.7 kmh 30.00 in1015.9 mb - 0.00 in0.0 mm 0.00 in0.0 mm
07:30 PM 64.9°F18.3°C 53.7°F12.1°C 67% 9.2 mph SW14.8 kmh SW 13.8 mph22.2 kmh 30.01 in1016.3 mb - 0.00 in0.0 mm 0.00 in0.0 mm
07:40 PM 64.2°F17.9°C 53.9°F12.2°C 69% 6.9 mph SW11.1 kmh SW 8.1 mph13.0 kmh 30.01 in1016.3 mb - 0.00 in0.0 mm 0.00 in0.0 mm
07:50 PM 63.7°F17.6°C 54.1°F12.3°C 71% 5.8 mph S9.3 kmh S 8.1 mph13.0 kmh 30.01 in1016.3 mb - 0.00 in0.0 mm 0.00 in0.0 mm
08:00 PM 63.5°F17.5°C 54.3°F12.4°C 72% Calm Calm -- 30.01 in1016.3 mb - 0.00 in0.0 mm 0.00 in0.0 mm
08:10 PM 62.9°F17.2°C 54.1°F12.3°C 73% Calm Calm -- 30.01 in1016.3 mb - 0.00 in0.0 mm 0.00 in0.0 mm
08:20 PM 62.6°F17.0°C 54.2°F12.3°C 74% Calm Calm -- 30.02 in1016.6 mb - 0.00 in0.0 mm 0.00 in0.0 mm
08:30 PM 62.2°F16.8°C 53.8°F12.1°C 74% Calm Calm -- 30.02 in1016.6 mb - 0.00 in0.0 mm 0.00 in0.0 mm
08:40 PM 61.7°F16.5°C 54.1°F12.3°C 76% Calm Calm -- 30.02 in1016.6 mb - 0.00 in0.0 mm 0.00 in0.0 mm
08:50 PM 61.6°F16.4°C 54.0°F12.2°C 76% Calm Calm -- 30.03 in1016.9 mb - 0.00 in0.0 mm 0.00 in0.0 mm
09:00 PM 61.5°F16.4°C 53.9°F12.2°C 76% Calm Calm -- 30.03 in1016.9 mb - 0.00 in0.0 mm 0.00 in0.0 mm
09:10 PM 61.4°F16.3°C 53.8°F12.1°C 76% Calm Calm -- 30.04 in1017.3 mb - 0.00 in0.0 mm 0.00 in0.0 mm
09:20 PM 61.3°F16.3°C 53.7°F12.1°C 76% Calm Calm -- 30.04 in1017.3 mb - 0.00 in0.0 mm 0.00 in0.0 mm
09:30 PM 61.1°F16.2°C 53.5°F11.9°C 76% Calm Calm -- 30.04 in1017.3 mb - 0.00 in0.0 mm 0.00 in0.0 mm
09:40 PM 60.9°F16.1°C 53.3°F11.8°C 76% Calm Calm -- 30.04 in1017.3 mb - 0.00 in0.0 mm 0.00 in0.0 mm
09:50 PM 60.8°F16.0°C 53.5°F11.9°C 77% Calm Calm -- 30.04 in1017.3 mb - 0.00 in0.0 mm 0.00 in0.0 mm
10:00 PM 60.5°F15.8°C 53.3°F11.8°C 77% Calm Calm -- 30.04 in1017.3 mb - 0.00 in0.0 mm 0.00 in0.0 mm
10:10 PM 60.3°F15.7°C 53.1°F11.7°C 77% Calm Calm -- 30.04 in1017.3 mb - 0.00 in0.0 mm 0.00 in0.0 mm
10:20 PM 60.1°F15.6°C 53.2°F11.8°C 78% Calm Calm -- 30.04 in1017.3 mb - 0.00 in0.0 mm 0.00 in0.0 mm
10:30 PM 59.8°F15.4°C 53.3°F11.8°C 79% Calm Calm -- 30.04 in1017.3 mb - 0.00 in0.0 mm 0.00 in0.0 mm
10:40 PM 59.7°F15.4°C 53.5°F11.9°C 80% Calm Calm -- 30.04 in1017.3 mb - 0.00 in0.0 mm 0.00 in0.0 mm
10:50 PM 59.6°F15.3°C 53.8°F12.1°C 81% Calm Calm -- 30.04 in1017.3 mb - 0.00 in0.0 mm 0.00 in0.0 mm
11:00 PM 59.6°F15.3°C 54.1°F12.3°C 82% Calm Calm -- 30.04 in1017.3 mb - 0.00 in0.0 mm 0.00 in0.0 mm
11:10 PM 59.6°F15.3°C 54.4°F12.4°C 83% Calm Calm -- 30.04 in1017.3 mb - 0.00 in0.0 mm 0.00 in0.0 mm
11:20 PM 59.5°F15.3°C 54.6°F12.6°C 84% Calm Calm -- 30.03 in1016.9 mb - 0.00 in0.0 mm 0.00 in0.0 mm
11:30 PM 59.3°F15.2°C 54.8°F12.7°C 85% Calm Calm -- 30.03 in1016.9 mb - 0.00 in0.0 mm 0.00 in0.0 mm
11:40 PM 59.1°F15.1°C 54.6°F12.6°C 85% Calm Calm -- 30.04 in1017.3 mb - 0.00 in0.0 mm 0.00 in0.0 mm
11:50 PM 59.0°F15.0°C 54.5°F12.5°C 85% Calm Calm -- 30.03 in1016.9 mb - 0.00 in0.0 mm 0.00 in0.0 mm